Northumberland Strait: Past 24 Hour Conditions

 

Twillingate

10:30 AM NST 26 November 2014
This table is a summary of hourly weather conditions for the past 24 hours.
Date / Time
(NST)
Wind(knots) Conditions Visibility(km) Pressure(kPa) Air tempC) Relative humidity(%) Dew pointC)
26 November 2014
10:30 WSW 27 gust 34 N/A N/A 100.8 4 68 -1
9:30 WSW 22 gust 30 N/A N/A 100.7 4 71 -1
8:30 WSW 21 gust 30 N/A N/A 100.6 4 74 0
7:30 WSW 28 gust 38 N/A N/A 100.3 4 75 0
6:30 WSW 26 gust 36 N/A N/A 100.3 4 75 0
5:30 WSW 25 gust 32 N/A N/A 100.3 4 73 0
4:30 WSW 27 gust 33 N/A N/A 100.2 4 74 0
3:30 WSW 22 gust 31 N/A N/A 100.1 5 72 0
2:30 WSW 21 gust 29 N/A N/A 100.1 6 69 0
1:30 SW 23 gust 28 N/A N/A 100.1 6 67 0
0:30 WSW 20 gust 29 N/A N/A 100.0 6 68 0
25 November 2014
23:30 WSW 19 gust 27 N/A N/A 100.0 6 71 1
22:30 WSW 21 gust 29 N/A N/A 100.0 6 70 1
21:30 WSW 24 gust 31 N/A N/A 99.9 7 71 2
20:30 WSW 22 gust 31 N/A N/A 99.9 8 76 4
19:30 WSW 23 gust 32 N/A N/A 99.9 9 76 5
18:30 WSW 25 gust 33 N/A N/A 99.8 10 74 6
17:30 SW 26 gust 33 N/A N/A 99.8 11 75 7
16:30 WSW 25 gust 35 N/A N/A 99.7 11 69 5
15:30 WSW 23 gust 30 N/A N/A 99.7 11 71 6
14:30 SW 23 gust 28 N/A N/A 99.7 11 73 7
13:30 WSW 21 gust 27 N/A N/A 99.7 11 81 7
12:30 SW 19 gust 29 N/A N/A 99.7 12 83 9
11:30 SW 15 gust 23 N/A N/A 99.8 11 87 9
10:30 SW 19 gust 25 N/A N/A 99.8 11 89 9
 
Map of Atlantic - Newfoundland marine weather areas Southwestern Grand Banks - 44138 Banquereau - 44139 Tail of the Bank - 44140 Nickerson Bank - 44251 Northeast Burgeo Bank - 44255 Blanc-Sablon Airport Cap Whittle Chevery Natashquan Airport Heath Point Miscou Island Grand Étang Ingonish Beach North Mountain St.Paul Island J.A. Douglas McCurdy Sydney Airport Charlottetown Airport East Point North Cape Argentia Bonavista Burgeo Cape Race Corner Brook Daniel's Harbour Englee Ferolle Point La Scie Port aux Basques Rocky Harbour Sagona Island St. Anthony Airport St. John's Int'l Airport St. Lawrence Stephenville Airport Twillingate Winterland Wreckhouse Cartwright Airport Mary's Harbour Grates Cove Pool's Island Marticot Island Long Pond Îles de la Madeleine Airport
Legend: buoyBuoy land stationLand Station